createdAt,value
2023-04-22T00:00:17.182Z,101089.03
2023-04-22T00:03:05.288Z,101083.59
2023-04-22T00:05:53.639Z,101081.84
2023-04-22T00:08:40.196Z,101082.03
2023-04-22T00:11:27.286Z,101074.19
2023-04-22T00:14:13.840Z,101077.88
2023-04-22T00:17:00.505Z,101063.84
2023-04-22T00:19:47.729Z,101065.84
2023-04-22T00:22:35.752Z,101060.88
2023-04-22T00:25:22.492Z,101060.13
2023-04-22T00:28:09.390Z,101060.19
2023-04-22T00:30:56.065Z,101064.69
2023-04-22T00:33:43.141Z,101057.72
2023-04-22T00:36:29.799Z,101053.44
2023-04-22T00:39:18.046Z,101049.25
2023-04-22T00:42:04.904Z,101047.34
2023-04-22T00:44:52.583Z,101055.34
2023-04-22T00:47:39.278Z,101053.16
2023-04-22T00:50:26.090Z,101054.97
2023-04-22T00:53:12.890Z,101049.81
2023-04-22T00:56:01.254Z,101041.78
2023-04-22T00:58:48.134Z,101047.06
2023-04-22T01:01:35.243Z,101042.72
2023-04-22T01:04:23.220Z,101025.22
2023-04-22T01:07:09.926Z,101041.00
2023-04-22T01:09:56.729Z,101041.22
2023-04-22T01:12:44.834Z,101042.13
2023-04-22T01:15:31.734Z,101041.28
2023-04-22T01:18:19.871Z,101036.94
2023-04-22T01:21:07.278Z,101038.09
2023-04-22T01:23:55.761Z,101032.78
2023-04-22T01:26:42.284Z,101036.19
2023-04-22T01:29:29.223Z,101032.81
2023-04-22T01:32:15.878Z,101029.41
2023-04-22T01:35:02.884Z,101037.31
2023-04-22T01:37:49.403Z,101024.94
2023-04-22T01:40:39.165Z,101035.03
2023-04-22T01:43:26.474Z,101034.88
2023-04-22T01:46:13.353Z,101032.00
2023-04-22T01:49:00.025Z,101020.41
2023-04-22T01:51:46.657Z,101018.34
2023-04-22T01:54:33.996Z,101023.75
2023-04-22T01:57:22.098Z,101017.81
2023-04-22T02:00:10.335Z,101026.50
2023-04-22T02:03:00.009Z,101026.91
2023-04-22T02:05:46.836Z,101016.09
2023-04-22T02:08:33.588Z,101014.41
2023-04-22T02:11:21.418Z,100990.38
2023-04-22T02:14:09.643Z,101014.41
2023-04-22T02:16:56.491Z,101005.22
2023-04-22T02:19:43.444Z,101007.84
2023-04-22T02:22:30.696Z,101006.81
2023-04-22T02:25:17.811Z,101004.84
2023-04-22T02:28:04.336Z,101001.38
2023-04-22T02:30:52.745Z,100991.84
2023-04-22T02:33:42.461Z,100986.19
2023-04-22T02:36:29.304Z,100986.28
2023-04-22T02:39:16.046Z,100970.84
2023-04-22T02:42:03.010Z,100977.03
2023-04-22T02:44:49.715Z,100973.88
2023-04-22T02:47:38.011Z,100969.59
2023-04-22T02:50:24.697Z,100972.22
2023-04-22T02:53:11.614Z,100967.72
2023-04-22T02:55:58.525Z,100968.63
2023-04-22T02:58:45.263Z,100968.69
2023-04-22T03:01:32.355Z,100966.19
2023-04-22T03:04:23.413Z,100964.50
2023-04-22T03:07:10.403Z,100964.41
2023-04-22T03:09:57.017Z,100964.19
2023-04-22T03:12:44.312Z,100965.19
2023-04-22T03:15:31.734Z,100954.81
2023-04-22T03:18:18.208Z,100956.50
2023-04-22T03:21:07.438Z,100952.16
2023-04-22T03:23:54.006Z,100964.78
2023-04-22T03:26:41.236Z,100962.31
2023-04-22T03:29:28.424Z,100963.19
2023-04-22T03:32:15.264Z,100964.22
2023-04-22T03:35:01.879Z,100963.44
2023-04-22T03:37:50.442Z,100968.44
2023-04-22T03:40:42.286Z,100955.00
2023-04-22T03:43:51.702Z,100960.53
2023-04-22T03:46:38.545Z,100956.25
2023-04-22T03:49:34.433Z,100949.59
2023-04-22T03:52:21.188Z,100960.28
2023-04-22T03:55:17.288Z,100963.97
2023-04-22T03:58:04.495Z,100961.34
2023-04-22T04:00:51.217Z,100968.38
2023-04-22T04:03:39.250Z,100958.75
2023-04-22T04:06:28.194Z,100959.84
2023-04-22T04:09:14.769Z,100954.47
2023-04-22T04:12:03.072Z,100956.97
2023-04-22T04:14:55.100Z,100954.06
2023-04-22T04:17:42.953Z,100957.56
2023-04-22T04:20:29.734Z,100956.56
2023-04-22T04:23:16.150Z,100951.59
2023-04-22T04:26:05.835Z,100954.91
2023-04-22T04:29:01.903Z,100950.56
2023-04-22T04:31:48.987Z,100952.09
2023-04-22T04:34:38.314Z,100950.91
2023-04-22T04:37:27.554Z,100952.22
2023-04-22T04:40:19.247Z,100954.38
2023-04-22T04:43:13.082Z,100950.38
2023-04-22T04:46:10.506Z,100957.38
2023-04-22T04:49:02.917Z,100961.97
2023-04-22T04:52:03.522Z,100965.84
2023-04-22T04:54:50.044Z,100963.38
2023-04-22T04:57:38.384Z,100959.72
2023-04-22T05:00:29.314Z,100965.69
2023-04-22T05:03:21.943Z,100954.72
2023-04-22T05:06:10.864Z,100965.44
2023-04-22T05:09:00.534Z,100953.00
2023-04-22T05:11:46.948Z,100957.69
2023-04-22T05:14:38.719Z,100950.19
2023-04-22T05:17:25.646Z,100954.56
2023-04-22T05:20:14.340Z,100948.50
2023-04-22T05:23:01.462Z,100950.22
2023-04-22T05:25:48.466Z,100945.19
2023-04-22T05:28:36.250Z,100943.88
2023-04-22T05:31:23.856Z,100934.47
2023-04-22T05:34:12.068Z,100936.56
2023-04-22T05:37:01.386Z,100930.88
2023-04-22T05:39:48.247Z,100932.28
2023-04-22T05:42:35.993Z,100930.16
2023-04-22T05:45:22.653Z,100941.00
2023-04-22T05:48:10.068Z,100939.91
2023-04-22T05:51:02.692Z,100944.06
2023-04-22T05:53:51.776Z,100941.94
2023-04-22T05:56:38.581Z,100943.63
2023-04-22T05:59:25.232Z,100934.25
2023-04-22T06:02:12.015Z,100931.94
2023-04-22T06:05:01.130Z,100934.63
2023-04-22T06:07:47.903Z,100936.56
2023-04-22T06:10:36.178Z,100936.34
2023-04-22T06:13:23.052Z,100942.03
2023-04-22T06:16:10.255Z,100948.91
2023-04-22T06:18:57.070Z,100949.09
2023-04-22T06:21:43.896Z,100942.06
2023-04-22T06:24:30.523Z,100946.78
2023-04-22T06:27:18.656Z,100938.84
2023-04-22T06:30:06.187Z,100933.09
2023-04-22T06:32:53.456Z,100943.22
2023-04-22T06:35:39.993Z,100933.94
2023-04-22T06:38:26.884Z,100934.97
2023-04-22T06:41:46.149Z,100941.19
2023-04-22T06:45:04.344Z,100938.91
2023-04-22T06:48:01.964Z,100933.41
2023-04-22T06:51:03.820Z,100927.28
2023-04-22T06:53:51.221Z,100922.34
2023-04-22T06:56:38.466Z,100922.53
2023-04-22T06:59:24.921Z,100922.09
2023-04-22T07:02:13.369Z,100923.50
2023-04-22T07:05:00.634Z,100921.44
2023-04-22T07:07:48.022Z,100924.50
2023-04-22T07:10:39.275Z,100928.72
2023-04-22T07:13:48.238Z,100930.16
2023-04-22T07:16:34.759Z,100925.31
2023-04-22T07:19:22.833Z,100931.88
2023-04-22T07:22:09.648Z,100924.16
2023-04-22T07:24:56.370Z,100918.13
2023-04-22T07:27:43.111Z,100917.88
2023-04-22T07:30:29.989Z,100922.72
2023-04-22T07:33:16.800Z,100932.06
2023-04-22T07:36:05.343Z,100920.81
2023-04-22T07:38:52.232Z,100925.44
2023-04-22T07:41:39.192Z,100920.31
2023-04-22T07:44:25.846Z,100922.63
2023-04-22T07:47:12.922Z,100922.66
2023-04-22T07:49:59.839Z,100921.63
2023-04-22T07:52:47.712Z,100925.84
2023-04-22T07:55:35.209Z,100910.72
2023-04-22T07:58:21.773Z,100905.09
2023-04-22T08:01:08.585Z,100905.84
2023-04-22T08:03:55.662Z,100901.28
2023-04-22T08:06:42.859Z,100899.53
2023-04-22T08:09:30.782Z,100898.41
2023-04-22T08:12:17.571Z,100902.84
2023-04-22T08:15:04.836Z,100897.66
2023-04-22T08:17:51.689Z,100895.31
2023-04-22T08:20:38.445Z,100893.06
2023-04-22T08:23:25.540Z,100894.19
2023-04-22T08:26:15.281Z,100886.78
2023-04-22T08:29:02.478Z,100839.25
2023-04-22T08:31:49.288Z,100882.03
2023-04-22T08:34:37.178Z,100878.94
2023-04-22T08:37:24.092Z,100872.81
2023-04-22T08:40:11.261Z,100869.63
2023-04-22T08:42:59.635Z,100861.06
2023-04-22T08:45:46.493Z,100871.97
2023-04-22T08:48:33.799Z,100861.38
2023-04-22T08:51:20.270Z,100863.88
2023-04-22T08:54:07.429Z,100862.28
2023-04-22T08:56:55.133Z,100871.53
2023-04-22T08:59:43.502Z,100866.66
2023-04-22T09:02:33.171Z,100866.03
2023-04-22T09:05:21.535Z,100881.19
2023-04-22T09:08:09.037Z,100868.78
2023-04-22T09:10:55.767Z,100874.06
2023-04-22T09:13:43.531Z,100866.50
2023-04-22T09:16:32.900Z,100866.25
2023-04-22T09:19:19.669Z,100874.94
2023-04-22T09:22:07.194Z,100874.75
2023-04-22T09:24:57.775Z,100861.34
2023-04-22T09:27:44.543Z,100858.09
2023-04-22T09:30:47.445Z,100850.09
2023-04-22T09:33:40.209Z,100850.53
2023-04-22T09:36:28.345Z,100839.50
2023-04-22T09:39:15.031Z,100850.06
2023-04-22T09:42:02.073Z,100839.50
2023-04-22T09:44:49.761Z,100838.59
2023-04-22T09:47:37.617Z,100829.13
2023-04-22T09:50:27.985Z,100822.81
2023-04-22T09:53:17.667Z,100821.69
2023-04-22T09:56:05.970Z,100816.88
2023-04-22T09:58:53.725Z,100809.84
2023-04-22T10:01:41.528Z,100815.75
2023-04-22T10:04:28.868Z,100807.69
2023-04-22T10:07:17.687Z,100813.09
2023-04-22T10:10:04.638Z,100803.41
2023-04-22T10:12:53.039Z,100804.00
2023-04-22T10:15:42.507Z,100798.25
2023-04-22T10:18:30.893Z,100792.53
2023-04-22T10:21:19.782Z,100794.78
2023-04-22T10:24:08.218Z,100779.63
2023-04-22T10:26:57.910Z,100782.88
2023-04-22T10:29:44.711Z,100780.66
2023-04-22T10:32:32.061Z,100774.78
2023-04-22T10:35:29.104Z,100784.75
2023-04-22T10:38:15.446Z,100783.03
2023-04-22T10:41:04.450Z,100776.50
2023-04-22T10:43:58.709Z,100761.59
2023-04-22T10:47:02.051Z,100759.50
2023-04-22T10:49:51.668Z,100758.25
2023-04-22T10:52:38.302Z,100751.94
2023-04-22T10:55:26.193Z,100755.25
2023-04-22T10:58:22.554Z,100753.09
2023-04-22T11:01:16.803Z,100752.19
2023-04-22T11:04:23.082Z,100740.69
2023-04-22T11:07:17.122Z,100733.66
2023-04-22T11:10:15.891Z,100730.50
2023-04-22T11:13:03.508Z,100730.66
2023-04-22T11:15:56.035Z,100728.31
2023-04-22T11:18:42.732Z,100736.34
2023-04-22T11:21:29.382Z,100728.31
2023-04-22T11:24:20.703Z,100730.00
2023-04-22T11:27:07.428Z,100719.41
2023-04-22T11:30:03.422Z,100723.00
2023-04-22T11:32:53.036Z,100714.91
2023-04-22T11:35:39.750Z,100725.84
2023-04-22T11:38:26.587Z,100708.22
2023-04-22T11:41:13.382Z,100710.50
2023-04-22T11:44:01.526Z,100711.09
2023-04-22T11:46:48.271Z,100717.84
2023-04-22T11:49:36.786Z,100713.16
2023-04-22T11:52:23.700Z,100702.06
2023-04-22T11:55:12.006Z,100707.31
2023-04-22T11:58:00.498Z,100706.03
2023-04-22T12:00:48.504Z,100698.81
2023-04-22T12:03:35.947Z,100703.03
2023-04-22T12:06:24.410Z,100692.91
2023-04-22T12:09:13.928Z,100687.47
2023-04-22T12:12:01.709Z,100688.16
2023-04-22T12:14:49.418Z,100688.34
2023-04-22T12:17:36.151Z,100682.34
2023-04-22T12:20:24.594Z,100683.38
2023-04-22T12:23:16.787Z,100683.94
2023-04-22T12:26:03.356Z,100682.50
2023-04-22T12:28:50.993Z,100675.41
2023-04-22T12:31:38.736Z,100671.25
2023-04-22T12:34:25.537Z,100664.38
2023-04-22T12:37:12.701Z,100668.69
2023-04-22T12:40:01.014Z,100672.81
2023-04-22T12:42:47.773Z,100666.25
2023-04-22T12:45:34.748Z,100662.84
2023-04-22T12:48:21.564Z,100662.00
2023-04-22T12:51:08.306Z,100657.56
2023-04-22T12:53:54.988Z,100653.16
2023-04-22T12:56:43.190Z,100656.16
2023-04-22T12:59:29.783Z,100641.63
2023-04-22T13:02:16.768Z,100648.16
2023-04-22T13:05:03.383Z,100643.47
2023-04-22T13:07:59.684Z,100646.75
2023-04-22T13:10:53.106Z,100636.63
2023-04-22T13:13:41.191Z,100647.88
2023-04-22T13:16:28.054Z,100632.22
2023-04-22T13:19:14.968Z,100623.50
2023-04-22T13:22:01.847Z,100632.63
2023-04-22T13:24:48.224Z,100629.50
2023-04-22T13:27:35.136Z,100627.78
2023-04-22T13:30:23.387Z,100617.53
2023-04-22T13:33:10.309Z,100623.09
2023-04-22T13:35:57.084Z,100614.81
2023-04-22T13:38:44.005Z,100613.81
2023-04-22T13:41:30.785Z,100613.25
2023-04-22T13:44:17.588Z,100605.56
2023-04-22T13:47:05.877Z,100604.28
2023-04-22T13:49:52.709Z,100599.56
2023-04-22T13:52:39.383Z,100598.56
2023-04-22T13:55:26.786Z,100587.47
2023-04-22T13:58:13.738Z,100591.16
2023-04-22T14:01:05.877Z,100586.31
2023-04-22T14:03:55.587Z,100585.47
2023-04-22T14:06:42.265Z,100588.44
2023-04-22T14:09:29.196Z,100573.06
2023-04-22T14:12:16.110Z,100569.09
2023-04-22T14:15:02.803Z,100567.50
2023-04-22T14:17:49.842Z,100578.19
2023-04-22T14:20:38.337Z,100562.66
2023-04-22T14:23:24.802Z,100572.50
2023-04-22T14:26:12.876Z,100565.53
2023-04-22T14:28:59.914Z,100555.97
2023-04-22T14:31:46.929Z,100555.84
2023-04-22T14:34:33.847Z,100545.28
2023-04-22T14:37:23.444Z,100551.13
2023-04-22T14:40:12.407Z,100517.50
2023-04-22T14:43:00.659Z,100534.88
2023-04-22T14:45:47.877Z,100536.44
2023-04-22T14:48:35.640Z,100536.59
2023-04-22T14:51:22.068Z,100537.72
2023-04-22T14:54:10.177Z,100536.59
2023-04-22T14:56:56.949Z,100524.91
2023-04-22T14:59:43.771Z,100524.91
2023-04-22T15:02:32.624Z,100526.91
2023-04-22T15:05:19.345Z,100517.94
2023-04-22T15:08:06.561Z,100516.22
2023-04-22T15:10:54.452Z,100523.66
2023-04-22T15:13:41.267Z,100525.63
2023-04-22T15:16:28.039Z,100521.78
2023-04-22T15:19:15.088Z,100514.81
2023-04-22T15:22:01.841Z,100509.53
2023-04-22T15:24:48.542Z,100502.84
2023-04-22T15:27:36.806Z,100508.97
2023-04-22T15:30:24.064Z,100498.72
2023-04-22T15:33:10.571Z,100489.75
2023-04-22T15:35:57.446Z,100490.03
2023-04-22T15:38:44.320Z,100481.63
2023-04-22T15:41:31.173Z,100487.34
2023-04-22T15:44:19.518Z,100479.06
2023-04-22T15:47:07.286Z,100486.19
2023-04-22T15:49:54.438Z,100481.06
2023-04-22T15:52:41.051Z,100477.09
2023-04-22T15:55:28.075Z,100480.63
2023-04-22T15:58:14.734Z,100486.75
2023-04-22T16:01:17.458Z,100474.94
2023-04-22T16:04:06.150Z,100471.53
2023-04-22T16:06:53.498Z,100467.41
2023-04-22T16:09:40.269Z,100456.56
2023-04-22T16:12:27.226Z,100445.91
2023-04-22T16:15:14.189Z,100453.72
2023-04-22T16:18:03.125Z,100452.31
2023-04-22T16:20:50.217Z,100455.44
2023-04-22T16:23:37.485Z,100443.19
2023-04-22T16:26:24.050Z,100441.63
2023-04-22T16:29:10.694Z,100440.44
2023-04-22T16:31:57.715Z,100431.00
2023-04-22T16:34:45.956Z,100426.31
2023-04-22T16:37:32.504Z,100425.75
2023-04-22T16:40:19.396Z,100418.16
2023-04-22T16:43:06.428Z,100417.28
2023-04-22T16:45:53.096Z,100411.44
2023-04-22T16:48:39.820Z,100424.50
2023-04-22T16:51:28.244Z,100411.22
2023-04-22T16:54:15.007Z,100408.13
2023-04-22T16:57:02.067Z,100406.16
2023-04-22T16:59:48.793Z,100407.50
2023-04-22T17:02:36.290Z,100408.03
2023-04-22T17:05:23.201Z,100405.72
2023-04-22T17:08:11.478Z,100406.31
2023-04-22T17:10:58.200Z,100407.56
2023-04-22T17:13:45.039Z,100406.09
2023-04-22T17:16:32.424Z,100407.56
2023-04-22T17:19:18.990Z,100402.09
2023-04-22T17:22:05.937Z,100403.53
2023-04-22T17:24:54.072Z,100401.13
2023-04-22T17:27:40.552Z,100397.72
2023-04-22T17:30:27.393Z,100401.63
2023-04-22T17:33:14.196Z,100401.78
2023-04-22T17:36:00.969Z,100400.09
2023-04-22T17:38:47.909Z,100403.97
2023-04-22T17:41:36.172Z,100393.69
2023-04-22T17:44:25.836Z,100402.63
2023-04-22T17:47:13.857Z,100409.91
2023-04-22T17:50:01.297Z,100410.22
2023-04-22T17:52:48.029Z,100401.91
2023-04-22T17:55:35.354Z,100406.13
2023-04-22T17:58:23.157Z,100401.63
2023-04-22T18:01:10.246Z,100402.66
2023-04-22T18:03:57.056Z,100400.66
2023-04-22T18:06:43.680Z,100411.38
2023-04-22T18:09:30.566Z,100406.34
2023-04-22T18:12:17.414Z,100406.31
2023-04-22T18:15:06.804Z,100407.41
2023-04-22T18:17:53.363Z,100411.91
2023-04-22T18:20:40.319Z,100407.28
2023-04-22T18:23:26.954Z,100415.69
2023-04-22T18:26:13.760Z,100415.97
2023-04-22T18:29:00.822Z,100418.06
2023-04-22T18:31:48.688Z,100413.41
2023-04-22T18:34:35.570Z,100424.13
2023-04-22T18:37:22.358Z,100418.91
2023-04-22T18:40:10.279Z,100419.84
2023-04-22T18:42:57.000Z,100426.41
2023-04-22T18:45:43.673Z,100422.69
2023-04-22T18:48:32.057Z,100420.63
2023-04-22T18:51:18.662Z,100430.47
2023-04-22T18:54:05.826Z,100429.81
2023-04-22T18:56:52.722Z,100427.63
2023-04-22T18:59:39.817Z,100426.09
2023-04-22T19:02:26.827Z,100425.38
2023-04-22T19:05:15.303Z,100428.91
2023-04-22T19:08:01.780Z,100427.09
2023-04-22T19:10:48.560Z,100426.53
2023-04-22T19:13:35.400Z,100426.63
2023-04-22T19:16:24.275Z,100429.75
2023-04-22T19:19:12.722Z,100426.75
2023-04-22T19:22:00.910Z,100424.28
2023-04-22T19:24:48.310Z,100428.72
2023-04-22T19:27:35.361Z,100418.03
2023-04-22T19:30:23.100Z,100420.28
2023-04-22T19:33:09.946Z,100419.03
2023-04-22T19:35:56.766Z,100422.13
2023-04-22T19:38:44.924Z,100417.94
2023-04-22T19:41:33.560Z,100408.31
2023-04-22T19:44:20.484Z,100408.03
2023-04-22T19:47:08.474Z,100403.84
2023-04-22T19:49:58.121Z,100402.44
2023-04-22T19:52:48.681Z,100405.81
2023-04-22T19:55:39.363Z,100407.38
2023-04-22T19:58:28.714Z,100405.13
2023-04-22T20:01:15.873Z,100391.53
2023-04-22T20:04:15.661Z,100386.97
2023-04-22T20:07:04.216Z,100388.34
2023-04-22T20:09:53.116Z,100382.84
2023-04-22T20:12:41.499Z,100377.00
2023-04-22T20:15:28.661Z,100382.16
2023-04-22T20:18:15.429Z,100378.88
2023-04-22T20:21:02.153Z,100381.19
2023-04-22T20:23:51.404Z,100362.38
2023-04-22T20:26:38.666Z,100375.09
2023-04-22T20:29:27.328Z,100375.53
2023-04-22T20:32:14.101Z,100380.09
2023-04-22T20:35:01.535Z,100376.38
2023-04-22T20:37:50.928Z,100370.25
2023-04-22T20:40:38.699Z,100371.13
2023-04-22T20:43:25.529Z,100362.72
2023-04-22T20:46:13.734Z,100364.59
2023-04-22T20:49:00.538Z,100367.47
2023-04-22T20:51:47.474Z,100370.44
2023-04-22T20:54:34.342Z,100359.16
2023-04-22T20:57:22.735Z,100362.06
2023-04-22T21:00:11.658Z,100357.13
2023-04-22T21:03:00.826Z,100357.22
2023-04-22T21:05:47.648Z,100358.63
2023-04-22T21:08:36.894Z,100355.56
2023-04-22T21:11:24.150Z,100345.03
2023-04-22T21:14:11.950Z,100349.38
2023-04-22T21:17:02.489Z,100345.13
2023-04-22T21:19:51.668Z,100339.03
2023-04-22T21:22:39.245Z,100338.09
2023-04-22T21:25:26.878Z,100344.97
2023-04-22T21:28:14.186Z,100336.84
2023-04-22T21:31:01.828Z,100346.06
2023-04-22T21:33:48.268Z,100341.22
2023-04-22T21:36:36.490Z,100341.34
2023-04-22T21:39:23.418Z,100326.38
2023-04-22T21:42:10.585Z,100326.16
2023-04-22T21:44:57.366Z,100327.97
2023-04-22T21:47:44.290Z,100317.50
2023-04-22T21:50:31.556Z,100323.25
2023-04-22T21:53:20.789Z,100318.94
2023-04-22T21:56:07.832Z,100319.69
2023-04-22T21:58:55.708Z,100323.75
2023-04-22T22:01:42.369Z,100328.91
2023-04-22T22:04:29.249Z,100322.72
2023-04-22T22:07:17.591Z,100318.31
2023-04-22T22:10:06.594Z,100320.38
2023-04-22T22:12:53.263Z,100322.31
2023-04-22T22:15:40.121Z,100313.69
2023-04-22T22:18:27.134Z,100320.19
2023-04-22T22:21:14.029Z,100320.41
2023-04-22T22:24:00.800Z,100311.31
2023-04-22T22:26:49.188Z,100311.41
2023-04-22T22:29:35.902Z,100314.09
2023-04-22T22:32:22.624Z,100312.47
2023-04-22T22:35:10.205Z,100314.97
2023-04-22T22:37:56.779Z,100307.63
2023-04-22T22:40:43.549Z,100301.50
2023-04-22T22:43:31.820Z,100301.88
2023-04-22T22:46:18.864Z,100304.22
2023-04-22T22:49:05.619Z,100304.81
2023-04-22T22:51:52.425Z,100306.44
2023-04-22T22:54:40.429Z,100299.81
2023-04-22T22:57:27.479Z,100301.19
2023-04-22T23:00:16.303Z,100298.72
2023-04-22T23:03:03.041Z,100298.00
2023-04-22T23:05:49.678Z,100290.94
2023-04-22T23:08:36.464Z,100277.97
2023-04-22T23:11:23.238Z,100281.31
2023-04-22T23:14:10.731Z,100283.75
2023-04-22T23:16:58.873Z,100286.94
2023-04-22T23:19:46.459Z,100275.56
2023-04-22T23:22:34.864Z,100274.50
2023-04-22T23:25:21.753Z,100276.63
2023-04-22T23:28:08.762Z,100272.81
2023-04-22T23:30:56.915Z,100268.81
2023-04-22T23:33:46.378Z,100267.75
2023-04-22T23:36:36.719Z,100241.22
2023-04-22T23:39:23.411Z,100259.38
2023-04-22T23:42:10.035Z,100256.84
2023-04-22T23:44:56.803Z,100256.09
2023-04-22T23:47:43.589Z,100249.53
2023-04-22T23:50:31.694Z,100245.69
2023-04-22T23:53:18.662Z,100245.28
2023-04-22T23:56:05.995Z,100241.31
2023-04-22T23:58:54.314Z,100237.38
